Time;durP1;ratioP1;P1;durP2;ratioP2;P2;SDS_P1;SDS_P2;PMS_P1;PMS_P2;Temp;Humidity;BMP_temperature;BMP_pressure;BME280_temperature;BME280_humidity;BME280_pressure;Samples;Min_cycle;Max_cycle;Signal;HPM_P1;HPM_P2
2022/03/07 00:01:48;;;;;;;11.38;8.30;;;;;;;1.78;64.57;102701.34;7397622;19;20010;-61
2022/03/07 00:04:17;;;;;;;12.48;8.05;;;;;;;1.74;64.73;102694.34;7395103;19;20010;-63
2022/03/07 00:06:46;;;;;;;10.88;7.28;;;;;;;1.71;64.59;102686.53;7393445;19;20054;-64
2022/03/07 00:09:18;;;;;;;11.48;7.97;;;;;;;1.76;65.00;102692.66;7394248;19;20025;-62
2022/03/07 00:11:47;;;;;;;10.77;8.03;;;;;;;1.76;65.13;102686.63;7394431;19;20030;-63
2022/03/07 00:14:16;;;;;;;13.98;8.85;;;;;;;1.68;64.93;102692.50;7396010;19;20011;-64
2022/03/07 00:16:45;;;;;;;13.65;8.30;;;;;;;1.68;65.12;102691.63;7396282;19;20400;-63
2022/03/07 00:19:14;;;;;;;11.60;8.02;;;;;;;1.65;65.19;102695.03;7393897;19;20017;-63
2022/03/07 00:21:43;;;;;;;13.95;8.82;;;;;;;1.67;65.58;102688.16;7394229;19;20025;-64
2022/03/07 00:24:12;;;;;;;12.32;8.75;;;;;;;1.68;65.06;102689.91;7393872;19;20018;-63
2022/03/07 00:26:43;;;;;;;11.82;8.57;;;;;;;1.66;64.49;102694.19;7392859;19;20007;-62
2022/03/07 00:29:12;;;;;;;12.73;8.60;;;;;;;1.63;65.31;102698.41;7393699;19;20014;-63
2022/03/07 00:31:41;;;;;;;13.30;8.70;;;;;;;1.63;66.11;102693.22;7398226;19;20010;-63
2022/03/07 00:34:10;;;;;;;13.68;8.30;;;;;;;1.60;65.39;102700.91;7394147;19;20038;-64
2022/03/07 00:36:39;;;;;;;10.73;7.93;;;;;;;1.64;65.64;102698.44;7393993;19;20025;-63
2022/03/07 00:39:08;;;;;;;11.40;8.25;;;;;;;1.76;65.67;102703.00;7394143;19;20021;-64
2022/03/07 00:41:37;;;;;;;15.45;9.35;;;;;;;1.67;65.94;102703.66;7394077;19;20029;-64
2022/03/07 00:44:08;;;;;;;13.57;9.20;;;;;;;1.65;66.43;102696.75;7391007;19;20344;-64
2022/03/07 00:46:40;;;;;;;14.10;8.52;;;;;;;1.60;66.31;102703.50;7394171;19;20022;-62
2022/03/07 00:49:08;;;;;;;12.95;9.13;;;;;;;1.53;66.40;102705.06;7392149;19;20022;-63
2022/03/07 00:51:37;;;;;;;13.05;8.88;;;;;;;1.58;66.83;102710.31;7391809;19;20019;-64
2022/03/07 00:54:06;;;;;;;12.43;8.70;;;;;;;1.63;66.32;102719.06;7390408;19;20011;-64
2022/03/07 00:56:35;;;;;;;12.65;8.43;;;;;;;1.62;66.07;102713.03;7389840;19;20305;-64
2022/03/07 00:59:05;;;;;;;13.82;9.13;;;;;;;1.50;66.49;102713.59;7392740;19;20043;-63
2022/03/07 01:01:37;;;;;;;13.35;9.00;;;;;;;1.52;66.87;102717.13;7395517;19;20026;-63
2022/03/07 01:04:06;;;;;;;12.70;9.13;;;;;;;1.58;66.48;102711.22;7393205;19;20056;-61
2022/03/07 01:06:35;;;;;;;12.65;9.43;;;;;;;1.51;66.72;102717.94;7390202;19;20368;-63
2022/03/07 01:09:05;;;;;;;14.23;9.30;;;;;;;1.49;66.85;102709.28;7392299;19;20015;-64
2022/03/07 01:11:33;;;;;;;10.90;8.55;;;;;;;1.48;66.88;102715.28;7390491;19;20126;-64
2022/03/07 01:14:02;;;;;;;15.07;9.75;;;;;;;1.52;66.37;102711.94;7394746;19;20045;-64
2022/03/07 01:16:31;;;;;;;12.23;8.75;;;;;;;1.50;66.72;102717.91;7392335;19;20027;-63
2022/03/07 01:19:03;;;;;;;13.18;9.55;;;;;;;1.51;66.94;102711.91;7391073;19;20018;-66
2022/03/07 01:21:32;;;;;;;15.75;10.48;;;;;;;1.58;66.57;102718.06;7391032;19;20022;-67
2022/03/07 01:24:00;;;;;;;12.30;9.13;;;;;;;1.51;66.74;102717.06;7391279;19;20015;-62
2022/03/07 01:26:29;;;;;;;13.85;9.38;;;;;;;1.42;67.01;102714.25;7389529;19;20023;-64
2022/03/07 01:28:59;;;;;;;14.45;9.32;;;;;;;1.42;67.14;102712.56;7390827;19;20030;-64
2022/03/07 01:31:28;;;;;;;13.32;9.80;;;;;;;1.49;66.92;102717.03;7394850;19;20014;-64
2022/03/07 01:33:57;;;;;;;14.93;10.02;;;;;;;1.49;66.76;102711.88;7392797;19;20515;-64
2022/03/07 01:36:28;;;;;;;14.02;9.80;;;;;;;1.46;66.12;102714.41;7389315;19;20022;-64
2022/03/07 01:38:57;;;;;;;15.20;10.35;;;;;;;1.42;67.18;102711.66;7390732;19;20365;-64
2022/03/07 01:41:26;;;;;;;15.20;10.38;;;;;;;1.37;66.42;102706.41;7391060;19;20030;-63
2022/03/07 01:43:55;;;;;;;15.98;10.70;;;;;;;1.38;67.23;102714.19;7392056;19;20018;-67
2022/03/07 01:46:24;;;;;;;14.48;10.07;;;;;;;1.40;67.09;102701.31;7393047;19;20022;-64
2022/03/07 01:48:53;;;;;;;16.00;10.75;;;;;;;1.49;67.05;102700.66;7391318;19;20487;-64
2022/03/07 01:51:24;;;;;;;13.90;10.25;;;;;;;1.41;66.58;102702.19;7390256;19;20373;-64
2022/03/07 01:53:57;;;;;;;15.52;10.50;;;;;;;1.30;66.73;102701.94;7389359;19;20010;-64
2022/03/07 01:56:26;;;;;;;14.67;10.70;;;;;;;1.33;67.47;102697.72;7387170;19;20014;-64
2022/03/07 01:58:55;;;;;;;17.40;10.57;;;;;;;1.35;67.62;102715.84;7389907;19;20019;-63
2022/03/07 02:01:24;;;;;;;18.35;10.90;;;;;;;1.40;67.23;102705.59;7389174;19;20029;-65
2022/03/07 02:03:53;;;;;;;16.83;10.45;;;;;;;1.37;67.68;102707.25;7391501;19;20057;-64
2022/03/07 02:06:24;;;;;;;15.27;10.70;;;;;;;1.36;66.99;102702.06;7388589;19;20061;-64
2022/03/07 02:08:58;;;;;;;14.25;10.55;;;;;;;1.42;66.92;102703.94;7390467;19;20475;-63
2022/03/07 02:11:36;;;;;;;17.60;11.10;;;;;;;1.37;67.15;102699.50;7390801;19;20011;-63
2022/03/07 02:14:15;;;;;;;15.23;11.07;;;;;;;1.46;66.67;102710.91;7392203;19;20487;-64
2022/03/07 02:16:46;;;;;;;14.05;10.65;;;;;;;1.60;65.63;102698.34;7389298;19;20023;-64
2022/03/07 02:19:17;;;;;;;15.75;10.77;;;;;;;1.45;66.38;102701.41;7390149;19;20014;-64
2022/03/07 02:21:47;;;;;;;15.25;11.02;;;;;;;1.44;66.70;102699.69;7389639;19;20070;-65
2022/03/07 02:24:22;;;;;;;15.88;10.93;;;;;;;1.39;66.92;102707.34;7390273;19;20019;-64
2022/03/07 02:27:01;;;;;;;15.93;10.77;;;;;;;1.28;67.05;102701.88;7389707;19;20017;-64
2022/03/07 02:29:31;;;;;;;18.25;11.90;;;;;;;1.30;66.96;102707.09;7390410;19;20384;-64
2022/03/07 02:32:12;;;;;;;15.68;11.07;;;;;;;1.29;67.25;102706.22;7390263;19;20021;-64
2022/03/07 02:34:46;;;;;;;14.90;10.82;;;;;;;1.39;66.65;102707.34;7389006;19;20518;-65
2022/03/07 02:37:17;;;;;;;18.27;11.60;;;;;;;1.23;67.18;102707.78;7387874;19;20025;-64
2022/03/07 02:39:55;;;;;;;18.02;11.25;;;;;;;1.21;67.64;102705.16;7388180;19;20372;-63
2022/03/07 02:42:25;;;;;;;15.93;11.68;;;;;;;1.23;68.10;102706.06;7388539;19;20053;-60
2022/03/07 02:44:54;;;;;;;18.20;11.70;;;;;;;1.21;68.46;102700.84;7392142;19;20022;-64
2022/03/07 02:47:24;;;;;;;16.70;12.00;;;;;;;1.15;68.45;102700.72;7386186;19;20014;-64
2022/03/07 02:49:53;;;;;;;17.65;11.60;;;;;;;1.11;68.10;102692.84;7387276;19;20014;-64
2022/03/07 02:52:22;;;;;;;18.45;11.80;;;;;;;1.07;68.25;102688.44;7387980;19;20015;-64
2022/03/07 02:54:51;;;;;;;19.23;11.82;;;;;;;1.09;68.23;102694.50;7388772;19;20364;-63
2022/03/07 02:57:22;;;;;;;15.85;11.25;;;;;;;1.12;68.08;102686.84;7388538;19;20014;-62
2022/03/07 02:59:51;;;;;;;17.83;11.82;;;;;;;0.95;68.28;102683.84;7390632;19;20026;-64
2022/03/07 03:02:21;;;;;;;17.67;11.50;;;;;;;0.99;68.68;102693.41;7389311;19;20021;-63
2022/03/07 03:04:50;;;;;;;19.85;12.07;;;;;;;1.01;68.62;102689.16;7389888;19;20340;-64
2022/03/07 03:07:19;;;;;;;18.88;12.38;;;;;;;1.01;69.02;102689.16;7387420;19;20018;-64
2022/03/07 03:09:47;;;;;;;18.30;12.20;;;;;;;0.99;69.19;102689.13;7391937;19;20014;-64
2022/03/07 03:12:16;;;;;;;16.60;11.40;;;;;;;0.99;68.53;102689.13;7388840;19;20121;-64
2022/03/07 03:14:49;;;;;;;17.02;11.57;;;;;;;0.88;68.52;102681.94;7391127;19;20018;-64
2022/03/07 03:17:18;;;;;;;17.08;11.65;;;;;;;0.88;69.20;102695.72;7387817;19;20015;-63
2022/03/07 03:19:48;;;;;;;20.65;12.63;;;;;;;0.92;69.49;102694.06;7388081;19;20022;-63
2022/03/07 03:22:19;;;;;;;18.77;12.35;;;;;;;0.88;69.32;102697.44;7389721;19;20010;-64
2022/03/07 03:24:48;;;;;;;23.25;12.88;;;;;;;0.82;69.46;102700.72;7390910;19;20380;-63
2022/03/07 03:27:17;;;;;;;19.63;12.68;;;;;;;0.72;69.13;102697.00;7387095;19;20019;-64
2022/03/07 03:29:48;;;;;;;20.75;13.13;;;;;;;0.73;69.93;102703.94;7387268;19;20026;-64
2022/03/07 03:32:18;;;;;;;19.73;12.85;;;;;;;0.86;69.54;102702.56;7388891;19;20018;-64
2022/03/07 03:34:47;;;;;;;18.83;12.32;;;;;;;0.83;69.72;102700.75;7387732;19;20022;-64
2022/03/07 03:37:15;;;;;;;19.60;12.48;;;;;;;0.78;69.56;102699.75;7388152;19;20019;-64
2022/03/07 03:39:44;;;;;;;19.77;12.88;;;;;;;0.76;69.84;102691.09;7388391;19;20022;-64
2022/03/07 03:42:13;;;;;;;19.73;12.98;;;;;;;0.75;69.76;102701.38;7388138;19;20029;-64
2022/03/07 03:44:42;;;;;;;19.30;12.65;;;;;;;0.82;69.78;102688.69;7388433;19;20019;-64
2022/03/07 03:47:14;;;;;;;17.75;12.85;;;;;;;0.80;69.74;102690.34;7386010;19;20022;-64
2022/03/07 03:49:42;;;;;;;19.67;12.95;;;;;;;0.72;69.56;102696.13;7387177;19;20022;-63
2022/03/07 03:52:12;;;;;;;20.02;13.13;;;;;;;0.68;69.88;102692.59;7390104;19;20466;-64
2022/03/07 03:54:41;;;;;;;20.55;13.15;;;;;;;0.71;70.33;102697.84;7386832;19;20022;-64
2022/03/07 03:57:10;;;;;;;23.77;13.30;;;;;;;0.74;70.38;102690.16;7385966;19;20014;-64
2022/03/07 03:59:39;;;;;;;18.50;12.52;;;;;;;0.74;70.10;102687.59;7386967;19;20174;-64
2022/03/07 04:02:08;;;;;;;23.33;13.20;;;;;;;0.80;69.84;102692.03;7388085;19;20034;-64
2022/03/07 04:04:40;;;;;;;18.85;12.80;;;;;;;0.76;69.27;102700.53;7386985;19;20018;-65
2022/03/07 04:07:08;;;;;;;20.67;13.30;;;;;;;0.74;70.07;102694.47;7389388;19;20014;-56
2022/03/07 04:09:37;;;;;;;21.45;13.50;;;;;;;0.65;70.15;102701.13;7390976;19;20018;-61
2022/03/07 04:12:07;;;;;;;23.33;13.95;;;;;;;0.72;70.44;102704.75;7388322;19;20011;-58
2022/03/07 04:14:37;;;;;;;24.00;13.95;;;;;;;0.62;70.06;102703.63;7390530;19;20019;-60
2022/03/07 04:17:06;;;;;;;22.40;13.63;;;;;;;0.64;70.00;102709.69;7387226;19;20021;-60
2022/03/07 04:19:34;;;;;;;23.20;13.68;;;;;;;0.56;69.71;102707.72;7392888;19;20017;-62
2022/03/07 04:22:07;;;;;;;23.08;15.00;;;;;;;0.49;71.07;102709.28;7399256;19;20014;-62
2022/03/07 04:24:35;;;;;;;22.95;13.40;;;;;;;0.49;70.04;102709.28;7395572;19;20011;-61
2022/03/07 04:27:05;;;;;;;21.42;13.93;;;;;;;0.47;70.74;102705.78;7393628;19;20037;-61
2022/03/07 04:29:34;;;;;;;21.13;13.13;;;;;;;0.44;70.76;102710.84;7394674;19;20015;-62
2022/03/07 04:32:03;;;;;;;21.48;13.90;;;;;;;0.29;70.62;102706.13;7394415;19;20025;-58
2022/03/07 04:34:32;;;;;;;21.02;14.07;;;;;;;0.38;71.32;102706.38;7394281;19;20030;-61
2022/03/07 04:37:01;;;;;;;22.00;13.35;;;;;;;0.46;71.08;102704.00;7396634;19;20018;-60
2022/03/07 04:39:32;;;;;;;22.48;14.40;;;;;;;0.40;70.76;102701.28;7393795;19;20458;-62
2022/03/07 04:42:01;;;;;;;23.25;14.40;;;;;;;0.41;71.10;102695.28;7394244;19;20021;-61
2022/03/07 04:44:30;;;;;;;20.70;13.55;;;;;;;0.36;71.04;102699.44;7394401;19;20113;-61
2022/03/07 04:46:59;;;;;;;22.33;14.65;;;;;;;0.35;72.02;102701.16;7393084;19;20078;-60
2022/03/07 04:49:28;;;;;;;20.55;14.82;;;;;;;0.31;70.88;102702.75;7393667;19;20019;-61
2022/03/07 04:51:57;;;;;;;24.67;15.43;;;;;;;0.41;72.06;102695.28;7398152;19;20022;-55
2022/03/07 04:54:26;;;;;;;23.17;14.82;;;;;;;0.37;71.43;102699.47;7394212;19;20045;-62
2022/03/07 04:56:57;;;;;;;22.73;14.50;;;;;;;0.32;72.07;102693.34;7393372;19;20114;-61
2022/03/07 04:59:26;;;;;;;22.13;14.30;;;;;;;0.34;72.36;102692.56;7393691;19;20494;-63
2022/03/07 05:01:55;;;;;;;22.90;15.07;;;;;;;0.32;72.05;102696.78;7394256;19;20019;-62
2022/03/07 05:04:24;;;;;;;22.30;14.98;;;;;;;0.32;72.73;102699.34;7395211;19;20122;-63
2022/03/07 05:06:53;;;;;;;21.33;14.45;;;;;;;0.19;72.47;102692.09;7397213;19;20014;-63
2022/03/07 05:09:22;;;;;;;22.48;13.73;;;;;;;0.20;72.64;102699.03;7393517;19;20022;-56
2022/03/07 05:11:51;;;;;;;25.40;15.10;;;;;;;0.23;72.18;102699.09;7392285;19;20037;-61
2022/03/07 05:14:22;;;;;;;22.50;14.75;;;;;;;0.24;72.69;102695.66;7398116;19;20011;-62
2022/03/07 05:16:51;;;;;;;21.83;14.55;;;;;;;0.27;72.16;102698.38;7392019;19;20341;-63
2022/03/07 05:19:20;;;;;;;26.25;15.40;;;;;;;0.17;72.49;102699.78;7393697;19;20495;-59
2022/03/07 05:21:49;;;;;;;26.58;15.40;;;;;;;0.25;72.87;102702.59;7397214;19;20014;-62
2022/03/07 05:24:18;;;;;;;25.95;16.23;;;;;;;0.25;73.15;102706.88;7394552;19;20018;-62
2022/03/07 05:26:47;;;;;;;24.38;15.30;;;;;;;0.29;72.59;102707.00;7392648;19;20029;-63
2022/03/07 05:29:16;;;;;;;22.27;14.85;;;;;;;0.28;72.54;102705.25;7393559;19;20018;-62
2022/03/07 05:31:48;;;;;;;23.45;15.00;;;;;;;0.24;72.40;102708.56;7396569;19;20045;-63
2022/03/07 05:34:16;;;;;;;22.77;14.55;;;;;;;0.18;72.53;102716.13;7393397;19;20021;-61
2022/03/07 05:36:45;;;;;;;21.58;14.93;;;;;;;0.18;72.72;102713.53;7395685;19;20021;-63
2022/03/07 05:39:14;;;;;;;22.98;15.30;;;;;;;0.25;72.89;102714.63;7393553;19;20011;-55
2022/03/07 05:41:43;;;;;;;22.75;15.02;;;;;;;0.29;72.31;102711.28;7394188;19;20086;-62
2022/03/07 05:44:12;;;;;;;24.52;15.15;;;;;;;0.21;72.34;102726.53;7395662;19;20014;-62
2022/03/07 05:46:41;;;;;;;23.05;15.75;;;;;;;0.26;72.30;102717.22;7393705;19;20010;-59
2022/03/07 05:49:12;;;;;;;21.33;15.70;;;;;;;0.23;72.06;102724.88;7392341;19;20104;-62
2022/03/07 05:51:43;;;;;;;22.85;15.25;;;;;;;0.25;72.21;102724.94;7398049;19;20018;-56
2022/03/07 05:54:13;;;;;;;23.75;15.65;;;;;;;0.31;72.63;102720.81;7393578;19;20459;-60
2022/03/07 05:56:42;;;;;;;23.13;14.75;;;;;;;0.28;72.53;102719.84;7391730;19;20014;-61
2022/03/07 05:59:10;;;;;;;24.52;14.40;;;;;;;0.27;71.61;102729.31;7393342;19;20014;-62
2022/03/07 06:01:40;;;;;;;23.80;15.30;;;;;;;0.13;71.97;102720.25;7392913;19;20011;-55
2022/03/07 06:04:09;;;;;;;23.73;15.10;;;;;;;0.19;73.03;102725.63;7393108;19;20010;-62
2022/03/07 06:06:40;;;;;;;21.45;14.85;;;;;;;0.16;72.27;102734.13;7395510;19;20097;-56
2022/03/07 06:09:09;;;;;;;27.80;15.98;;;;;;;0.17;72.93;102743.63;7393190;19;20083;-64
2022/03/07 06:11:38;;;;;;;26.00;15.82;;;;;;;0.29;72.81;102740.53;7394267;19;20011;-60
2022/03/07 06:14:07;;;;;;;25.60;15.98;;;;;;;0.29;72.19;102737.06;7400418;19;20018;-56
2022/03/07 06:16:36;;;;;;;23.60;15.70;;;;;;;0.43;71.76;102735.78;7389258;19;20014;-62
2022/03/07 06:19:05;;;;;;;24.38;15.85;;;;;;;0.46;71.70;102741.00;7391634;19;20344;-61
2022/03/07 06:21:34;;;;;;;26.10;15.93;;;;;;;0.43;72.02;102745.19;7395585;19;20014;-59
2022/03/07 06:24:06;;;;;;;25.52;15.52;;;;;;;0.40;71.51;102746.00;7392157;19;20033;-60
2022/03/07 06:26:36;;;;;;;22.92;15.32;;;;;;;0.37;71.22;102743.31;7392310;19;20356;-62
2022/03/07 06:29:05;;;;;;;22.25;15.40;;;;;;;0.28;71.24;102740.47;7392143;19;20363;-64
2022/03/07 06:31:34;;;;;;;24.70;15.70;;;;;;;0.28;71.64;102746.50;7392047;19;20011;-60
2022/03/07 06:34:03;;;;;;;22.27;15.77;;;;;;;0.33;71.43;102744.94;7392044;19;20129;-62
2022/03/07 06:36:32;;;;;;;23.65;15.52;;;;;;;0.36;71.71;102749.31;7394000;19;20615;-61
2022/03/07 06:39:01;;;;;;;24.42;15.85;;;;;;;0.32;71.76;102745.75;7391087;19;20014;-61
2022/03/07 06:41:33;;;;;;;26.30;16.33;;;;;;;0.39;72.07;102746.81;7390112;19;20364;-62
2022/03/07 06:44:02;;;;;;;23.63;15.63;;;;;;;0.47;71.63;102758.25;7391378;19;20324;-63
2022/03/07 06:46:31;;;;;;;24.42;16.38;;;;;;;0.43;71.05;102751.25;7390580;19;20022;-64
2022/03/07 06:49:00;;;;;;;22.45;14.90;;;;;;;0.39;71.35;102745.94;7391525;19;20021;-65
2022/03/07 06:51:29;;;;;;;25.42;16.92;;;;;;;0.45;71.37;102746.13;7394506;19;20018;-63
2022/03/07 06:53:58;;;;;;;23.73;15.95;;;;;;;0.61;70.84;102750.88;7391543;19;20021;-62
2022/03/07 06:56:26;;;;;;;23.35;14.93;;;;;;;0.65;70.01;102749.28;7389632;19;20029;-62
2022/03/07 06:58:59;;;;;;;24.42;16.10;;;;;;;0.59;70.27;102742.25;7390952;19;20014;-61
2022/03/07 07:01:29;;;;;;;23.40;15.90;;;;;;;0.69;70.86;102748.53;7389785;19;20099;-58
2022/03/07 07:03:58;;;;;;;22.00;15.02;;;;;;;0.72;69.96;102738.28;7392880;19;20014;-60
2022/03/07 07:06:27;;;;;;;22.27;15.65;;;;;;;0.83;69.94;102739.47;7395451;19;20044;-58
2022/03/07 07:08:55;;;;;;;26.98;15.73;;;;;;;0.78;70.18;102735.88;7396910;19;20314;-61
2022/03/07 07:11:24;;;;;;;24.92;14.25;;;;;;;0.73;69.87;102734.00;7397262;19;20017;-57
2022/03/07 07:13:53;;;;;;;22.77;15.10;;;;;;;0.73;71.07;102740.06;7397334;19;20015;-58
2022/03/07 07:16:25;;;;;;;27.70;15.20;;;;;;;0.81;70.77;102740.25;7395260;19;20091;-59
2022/03/07 07:18:53;;;;;;;22.73;14.15;;;;;;;0.90;69.08;102737.03;7396462;19;20018;-58
2022/03/07 07:21:22;;;;;;;23.08;13.65;;;;;;;0.88;68.41;102738.72;7399836;19;20014;-57
2022/03/07 07:23:51;;;;;;;21.98;14.77;;;;;;;0.93;69.37;102734.53;7388924;19;20022;-56
2022/03/07 07:26:20;;;;;;;18.67;13.50;;;;;;;1.00;68.65;102742.50;7394940;19;20022;-60
2022/03/07 07:28:49;;;;;;;21.05;14.52;;;;;;;1.02;68.73;102737.38;7397162;19;20021;-55
2022/03/07 07:31:18;;;;;;;18.75;14.07;;;;;;;1.12;68.50;102731.63;7398671;19;20025;-62
2022/03/07 07:33:49;;;;;;;21.92;14.18;;;;;;;1.26;68.22;102734.56;7396304;19;20011;-62
2022/03/07 07:36:18;;;;;;;22.80;14.25;;;;;;;1.33;67.45;102733.88;7394608;19;20018;-62
2022/03/07 07:38:47;;;;;;;27.27;15.48;;;;;;;1.37;68.21;102735.69;7393024;19;20045;-58
2022/03/07 07:41:16;;;;;;;21.98;14.82;;;;;;;1.45;67.40;102738.47;7390319;19;20054;-63
2022/03/07 07:43:45;;;;;;;23.80;15.70;;;;;;;1.55;67.16;102737.00;7394287;19;20336;-60
2022/03/07 07:46:14;;;;;;;22.33;14.40;;;;;;;1.57;66.93;102732.72;7392599;19;20026;-57
2022/03/07 07:48:43;;;;;;;23.20;15.20;;;;;;;1.65;66.58;102738.94;7393485;19;20027;-57
2022/03/07 07:51:15;;;;;;;20.10;13.63;;;;;;;1.71;65.74;102735.63;7392687;19;20090;-58
2022/03/07 07:53:44;;;;;;;18.98;14.02;;;;;;;1.82;66.77;102735.88;7395641;19;20017;-59
2022/03/07 07:56:13;;;;;;;18.50;13.77;;;;;;;2.00;66.18;102733.72;7398338;19;20050;-61
2022/03/07 07:58:42;;;;;;;20.85;13.88;;;;;;;2.12;64.76;102740.00;7400472;19;20070;-59
2022/03/07 08:01:11;;;;;;;25.58;14.30;;;;;;;2.21;64.71;102740.22;7398691;19;20007;-55
2022/03/07 08:03:40;;;;;;;20.08;13.68;;;;;;;2.25;64.26;102747.19;7401205;19;20427;-55
2022/03/07 08:06:08;;;;;;;22.23;13.98;;;;;;;2.28;64.64;102755.00;7399906;19;20014;-56
2022/03/07 08:08:40;;;;;;;22.65;13.65;;;;;;;2.37;64.68;102752.59;7399791;19;20324;-59
2022/03/07 08:11:09;;;;;;;17.45;13.38;;;;;;;2.46;63.68;102756.25;7398424;19;20360;-61
2022/03/07 08:13:38;;;;;;;18.52;12.95;;;;;;;2.48;63.18;102762.31;7400318;19;20463;-61
2022/03/07 08:16:07;;;;;;;18.13;13.05;;;;;;;2.54;62.67;102770.22;7397870;19;20606;-57
2022/03/07 08:18:36;;;;;;;17.67;12.30;;;;;;;2.65;61.95;102763.56;7397662;19;20014;-59
2022/03/07 08:21:05;;;;;;;18.98;13.55;;;;;;;2.67;62.13;102767.03;7397258;19;20119;-59
2022/03/07 08:23:34;;;;;;;21.15;12.98;;;;;;;2.66;62.02;102770.44;7400899;19;20022;-59
2022/03/07 08:26:06;;;;;;;18.55;12.73;;;;;;;2.74;62.80;102770.63;7403152;19;20026;-59
2022/03/07 08:28:35;;;;;;;23.80;13.52;;;;;;;2.78;61.62;102772.44;7403472;19;20007;-61
2022/03/07 08:31:04;;;;;;;21.05;12.65;;;;;;;2.86;61.24;102773.44;7375316;19;20022;-62
2022/03/07 08:33:33;;;;;;;22.33;12.60;;;;;;;2.91;61.71;102768.38;7400474;19;20021;-62
2022/03/07 08:36:02;;;;;;;18.38;11.75;;;;;;;3.01;61.62;102766.78;7399788;19;20397;-62
2022/03/07 08:38:31;;;;;;;18.45;12.60;;;;;;;3.11;60.69;102769.59;7403779;19;20355;-59
2022/03/07 08:41:00;;;;;;;19.05;12.65;;;;;;;3.23;60.37;102774.13;7402866;19;20019;-60
2022/03/07 08:43:32;;;;;;;18.45;12.20;;;;;;;3.35;59.95;102770.00;7404162;19;20006;-62
2022/03/07 08:46:01;;;;;;;17.67;12.50;;;;;;;3.39;59.32;102766.63;7399755;19;20464;-62
2022/03/07 08:48:30;;;;;;;17.17;11.38;;;;;;;3.40;58.80;102771.81;7400742;19;20014;-61
2022/03/07 08:50:59;;;;;;;16.55;12.15;;;;;;;3.45;58.62;102767.59;7398482;19;20022;-60
2022/03/07 08:53:27;;;;;;;15.52;10.90;;;;;;;3.54;58.07;102772.06;7399267;19;20015;-57
2022/03/07 08:55:56;;;;;;;18.80;11.57;;;;;;;3.64;57.56;102773.97;7399913;19;20018;-62
2022/03/07 08:58:25;;;;;;;17.38;10.80;;;;;;;3.70;56.77;102777.50;7403503;19;20014;-59
2022/03/07 09:00:57;;;;;;;17.83;11.50;;;;;;;3.87;57.66;102776.03;7397473;19;20006;-62
2022/03/07 09:03:26;;;;;;;17.30;10.45;;;;;;;3.92;56.36;102774.38;7397860;19;20433;-61
2022/03/07 09:05:55;;;;;;;15.43;10.35;;;;;;;3.97;56.54;102769.28;7397164;19;20082;-64
2022/03/07 09:08:24;;;;;;;14.15;10.23;;;;;;;4.07;56.22;102763.38;7397451;19;20022;-60
2022/03/07 09:10:52;;;;;;;15.85;8.40;;;;;;;4.18;53.71;102754.84;7397849;19;20017;-66
2022/03/07 09:13:21;;;;;;;15.85;8.70;;;;;;;4.35;54.48;102758.53;7400670;19;20030;-58
2022/03/07 09:15:52;;;;;;;12.60;9.05;;;;;;;4.38;53.24;102763.78;7396359;19;20017;-60
2022/03/07 09:18:25;;;;;;;10.98;8.57;;;;;;;4.43;52.64;102759.53;7400463;19;20053;-62
2022/03/07 09:20:54;;;;;;;12.82;9.15;;;;;;;4.37;53.25;102756.84;7395821;19;20100;-61
2022/03/07 09:23:23;;;;;;;12.38;9.10;;;;;;;4.35;52.17;102758.53;7395797;19;20044;-62
2022/03/07 09:25:52;;;;;;;14.57;8.88;;;;;;;4.36;53.35;102759.44;7396115;19;20007;-60
2022/03/07 09:28:22;;;;;;;19.02;10.52;;;;;;;4.30;54.03;102761.09;7400652;19;20021;-61
2022/03/07 09:30:50;;;;;;;11.93;8.57;;;;;;;4.58;52.04;102768.34;7396158;19;20041;-57
2022/03/07 09:33:19;;;;;;;11.57;8.63;;;;;;;4.60;53.61;102769.22;7397468;19;20010;-59
2022/03/07 09:35:51;;;;;;;13.32;8.95;;;;;;;4.54;51.28;102775.22;7402679;19;20020;-58
2022/03/07 09:38:20;;;;;;;13.38;8.57;;;;;;;4.43;51.74;102772.50;7395644;19;20137;-63
2022/03/07 09:40:49;;;;;;;17.92;9.73;;;;;;;4.28;52.80;102772.28;7394296;19;20003;-60
2022/03/07 09:43:18;;;;;;;12.85;9.07;;;;;;;4.37;52.82;102769.84;7393578;19;20010;-64
2022/03/07 09:45:47;;;;;;;12.60;8.68;;;;;;;4.40;51.29;102771.56;7396893;19;20018;-58
2022/03/07 09:48:16;;;;;;;11.68;9.15;;;;;;;4.53;52.49;102768.31;7394872;19;20018;-59
2022/03/07 09:50:46;;;;;;;10.75;7.50;;;;;;;4.60;51.61;102758.84;7396100;19;20010;-58
2022/03/07 09:53:17;;;;;;;15.75;8.82;;;;;;;4.96;51.22;102752.34;7399230;19;20337;-62
2022/03/07 09:55:48;;;;;;;11.10;7.88;;;;;;;5.14;50.99;102744.72;7393507;19;20120;-57
2022/03/07 09:58:17;;;;;;;30.10;8.60;;;;;;;5.25;50.43;102749.16;7392497;19;20015;-60
2022/03/07 10:00:46;;;;;;;12.18;8.13;;;;;;;5.27;49.92;102739.63;7395205;19;20014;-60
2022/03/07 10:03:18;;;;;;;17.73;8.38;;;;;;;5.43;50.12;102745.81;7396386;19;20011;-61
2022/03/07 10:05:48;;;;;;;18.13;9.00;;;;;;;5.59;50.25;102741.63;7395731;19;20019;-60
2022/03/07 10:08:28;;;;;;;17.02;8.15;;;;;;;5.43;49.77;102741.53;7396417;19;20018;-62
2022/03/07 10:10:58;;;;;;;11.57;8.13;;;;;;;5.35;50.31;102740.56;7392596;19;20487;-63
2022/03/07 10:13:27;;;;;;;10.13;7.55;;;;;;;5.11;50.52;102733.41;7396924;19;20014;-62
2022/03/07 10:15:58;;;;;;;12.63;8.85;;;;;;;5.24;50.19;102739.59;7391354;19;20752;-61
2022/03/07 10:18:31;;;;;;;9.35;7.28;;;;;;;5.34;49.90;102736.22;7392507;19;20487;-63
2022/03/07 10:21:02;;;;;;;12.27;7.90;;;;;;;5.55;48.78;102743.34;7392643;19;20028;-60
2022/03/07 10:23:34;;;;;;;10.55;7.40;;;;;;;5.51;49.04;102733.75;7394382;19;20014;-61
2022/03/07 10:26:08;;;;;;;10.50;6.72;;;;;;;5.32;49.06;102724.97;7397652;19;20011;-62
2022/03/07 10:28:38;;;;;;;10.77;7.47;;;;;;;5.44;49.45;102730.25;7394724;19;20505;-63
2022/03/07 10:31:17;;;;;;;169.25;16.13;;;;;;;5.70;49.14;102721.75;7394488;19;20122;-64
2022/03/07 10:33:47;;;;;;;12.43;7.65;;;;;;;5.79;48.54;102711.44;7393490;19;20487;-64
2022/03/07 10:36:16;;;;;;;18.60;8.48;;;;;;;5.93;48.91;102711.53;7393543;19;20018;-64
2022/03/07 10:38:58;;;;;;;12.80;7.90;;;;;;;5.67;48.61;102708.75;7397072;19;20014;-57
2022/03/07 10:41:35;;;;;;;11.20;6.97;;;;;;;5.44;48.71;102717.25;7393621;19;20022;-59
2022/03/07 10:44:04;;;;;;;20.15;7.68;;;;;;;5.43;49.17;102705.13;7394096;19;20010;-61
2022/03/07 10:46:33;;;;;;;12.63;7.40;;;;;;;5.49;48.88;102701.69;7393437;19;20019;-66
2022/03/07 10:49:02;;;;;;;11.13;7.45;;;;;;;5.43;48.93;102704.22;7392916;19;20091;-62
2022/03/07 10:51:32;;;;;;;191.70;16.30;;;;;;;5.55;49.92;102700.00;7394464;19;20108;-62
2022/03/07 10:54:12;;;;;;;11.98;7.18;;;;;;;5.65;48.87;102703.53;7392464;19;20571;-59
2022/03/07 10:56:51;;;;;;;11.10;7.60;;;;;;;5.46;48.65;102686.94;7392284;19;20025;-63
2022/03/07 10:59:29;;;;;;;9.30;7.20;;;;;;;5.45;49.65;102686.94;7392663;19;20034;-65
2022/03/07 11:02:04;;;;;;;11.18;8.02;;;;;;;5.65;50.11;102679.25;7393665;19;20479;-62
2022/03/07 11:04:33;;;;;;;10.90;8.07;;;;;;;5.81;49.80;102675.88;7393357;19;20483;-64
2022/03/07 11:07:02;;;;;;;11.88;8.05;;;;;;;6.11;48.73;102670.88;7393321;19;20014;-64
2022/03/07 11:09:34;;;;;;;13.32;9.13;;;;;;;6.12;49.78;102663.06;7390454;19;20010;-61
2022/03/07 11:12:04;;;;;;;13.20;9.60;;;;;;;5.98;49.81;102670.78;7394243;19;20040;-61
2022/03/07 11:14:34;;;;;;;13.60;9.50;;;;;;;5.92;50.65;102665.53;7397114;19;20431;-62
2022/03/07 11:17:04;;;;;;;13.40;9.27;;;;;;;5.97;49.94;102665.56;7391246;19;20018;-61
2022/03/07 11:19:35;;;;;;;16.15;9.23;;;;;;;5.95;50.13;102667.28;7391851;19;20022;-63
2022/03/07 11:22:04;;;;;;;21.63;10.18;;;;;;;5.97;50.76;102666.44;7394645;19;20069;-63
2022/03/07 11:24:37;;;;;;;12.38;8.88;;;;;;;5.98;50.75;102656.94;7393252;19;20096;-59
2022/03/07 11:27:08;;;;;;;14.82;9.88;;;;;;;5.78;51.44;102660.25;7392291;19;20031;-61
2022/03/07 11:29:38;;;;;;;13.68;10.15;;;;;;;5.85;51.93;102656.81;7398673;19;20049;-64
2022/03/07 11:32:10;;;;;;;12.80;9.25;;;;;;;6.11;51.71;102650.91;7399353;19;20085;-62